createdAt,value
2023-01-21T00:01:07.131Z,49.83
2023-01-21T00:04:10.712Z,43.23
2023-01-21T00:07:14.482Z,43.33
2023-01-21T00:10:18.924Z,51.40
2023-01-21T00:13:24.211Z,41.63
2023-01-21T00:16:27.934Z,45.27
2023-01-21T00:19:32.065Z,50.90
2023-01-21T00:22:35.703Z,47.27
2023-01-21T00:25:39.474Z,45.37
2023-01-21T00:28:44.879Z,45.80
2023-01-21T00:31:48.616Z,48.63
2023-01-21T00:34:52.359Z,39.27
2023-01-21T00:37:56.350Z,48.33
2023-01-21T00:41:04.711Z,42.07
2023-01-21T00:44:10.000Z,49.37
2023-01-21T00:47:13.639Z,46.47
2023-01-21T00:50:18.124Z,43.13
2023-01-21T00:53:21.955Z,47.63
2023-01-21T00:56:25.643Z,51.07
2023-01-21T00:59:31.350Z,50.03
2023-01-21T01:02:35.096Z,46.87
2023-01-21T01:05:38.800Z,57.43
2023-01-21T01:08:42.727Z,50.73
2023-01-21T01:11:46.383Z,50.07
2023-01-21T01:14:51.376Z,50.60
2023-01-21T01:17:55.181Z,50.97
2023-01-21T01:20:58.917Z,52.50
2023-01-21T01:24:03.380Z,46.97
2023-01-21T01:27:07.018Z,46.80
2023-01-21T01:30:14.259Z,45.43
2023-01-21T01:33:19.307Z,50.50
2023-01-21T01:36:24.781Z,42.73
2023-01-21T01:39:28.482Z,44.77
2023-01-21T01:42:32.142Z,43.47
2023-01-21T01:45:37.605Z,48.13
2023-01-21T01:48:44.920Z,43.33
2023-01-21T01:51:54.332Z,41.13
2023-01-21T01:55:03.352Z,43.93
2023-01-21T01:58:13.429Z,46.57
2023-01-21T02:01:19.160Z,41.27
2023-01-21T02:04:30.270Z,41.40
2023-01-21T02:07:39.681Z,40.70
2023-01-21T02:10:43.683Z,44.17
2023-01-21T02:13:54.036Z,44.10
2023-01-21T02:17:30.527Z,49.57
2023-01-21T02:21:20.137Z,40.80
2023-01-21T02:25:15.314Z,44.77
2023-01-21T02:29:00.220Z,41.93
2023-01-21T02:32:58.431Z,41.73
2023-01-21T02:36:23.718Z,47.03
2023-01-21T02:39:46.507Z,40.57
2023-01-21T02:43:03.028Z,41.50
2023-01-21T02:46:17.931Z,38.87
2023-01-21T02:49:30.848Z,38.90
2023-01-21T02:52:34.695Z,36.23
2023-01-21T02:55:42.011Z,43.17
2023-01-21T02:58:52.493Z,38.73
2023-01-21T03:02:15.027Z,39.50
2023-01-21T03:05:36.957Z,43.17
2023-01-21T03:08:49.230Z,47.67
2023-01-21T03:12:13.920Z,52.50
2023-01-21T03:15:43.235Z,52.10
2023-01-21T03:18:53.969Z,46.87
2023-01-21T03:22:04.564Z,40.57
2023-01-21T03:25:13.073Z,42.93
2023-01-21T03:28:24.350Z,46.60
2023-01-21T03:31:34.365Z,41.63
2023-01-21T03:34:45.317Z,37.70
2023-01-21T03:37:59.963Z,38.57
2023-01-21T03:41:13.327Z,39.00
2023-01-21T03:44:17.765Z,39.97
2023-01-21T03:47:29.530Z,41.30
2023-01-21T03:50:39.417Z,40.23
2023-01-21T03:53:45.074Z,41.47
2023-01-21T03:56:48.750Z,40.13
2023-01-21T03:59:52.445Z,35.63
2023-01-21T04:02:56.055Z,39.37
2023-01-21T04:05:59.878Z,41.93
2023-01-21T04:09:05.018Z,39.77
2023-01-21T04:12:08.677Z,36.40
2023-01-21T04:15:13.116Z,38.60
2023-01-21T04:18:16.697Z,38.43
2023-01-21T04:21:20.319Z,38.53
2023-01-21T04:24:25.326Z,44.70
2023-01-21T04:27:29.042Z,38.80
2023-01-21T04:30:32.804Z,43.50
2023-01-21T04:33:36.547Z,38.87
2023-01-21T04:36:40.145Z,39.47
2023-01-21T04:39:45.410Z,41.47
2023-01-21T04:42:49.040Z,44.50
2023-01-21T04:45:52.818Z,42.40
2023-01-21T04:48:56.415Z,40.87
2023-01-21T04:52:00.094Z,40.03
2023-01-21T04:55:06.260Z,43.97
2023-01-21T04:58:10.017Z,41.43
2023-01-21T05:01:14.009Z,41.47
2023-01-21T05:04:17.917Z,41.10
2023-01-21T05:07:21.853Z,45.60
2023-01-21T05:10:27.028Z,41.37
2023-01-21T05:13:30.733Z,39.20
2023-01-21T05:16:34.327Z,41.40
2023-01-21T05:19:38.087Z,42.27
2023-01-21T05:22:41.841Z,43.30
2023-01-21T05:25:49.581Z,42.57
2023-01-21T05:29:00.212Z,41.17
2023-01-21T05:32:03.877Z,42.00
2023-01-21T05:35:08.693Z,42.97
2023-01-21T05:38:12.286Z,39.77
2023-01-21T05:41:17.323Z,40.37
2023-01-21T05:44:21.137Z,40.80
2023-01-21T05:47:24.876Z,42.93
2023-01-21T05:50:28.517Z,47.80
2023-01-21T05:53:32.124Z,52.57
2023-01-21T05:56:37.091Z,43.60
2023-01-21T05:59:40.709Z,40.87
2023-01-21T06:02:44.371Z,44.47
2023-01-21T06:05:50.894Z,45.20
2023-01-21T06:08:54.539Z,40.30
2023-01-21T06:11:59.728Z,52.80
2023-01-21T06:15:03.378Z,44.00
2023-01-21T06:18:08.502Z,42.07
2023-01-21T06:21:12.160Z,47.03
2023-01-21T06:24:15.998Z,47.70
2023-01-21T06:27:20.925Z,48.57
2023-01-21T06:30:25.819Z,45.57
2023-01-21T06:33:29.515Z,47.73
2023-01-21T06:36:33.202Z,44.40
2023-01-21T06:39:36.967Z,50.67
2023-01-21T06:42:42.227Z,43.77
2023-01-21T06:45:45.797Z,47.70
2023-01-21T06:48:49.530Z,47.13
2023-01-21T06:51:53.259Z,52.03
2023-01-21T06:54:56.875Z,46.23
2023-01-21T06:58:02.072Z,51.27
2023-01-21T07:01:06.060Z,46.07
2023-01-21T07:04:09.640Z,43.70
2023-01-21T07:07:13.269Z,42.97
2023-01-21T07:10:17.876Z,48.17
2023-01-21T07:13:23.510Z,46.67
2023-01-21T07:16:27.545Z,47.30
2023-01-21T07:19:31.197Z,52.23
2023-01-21T07:22:36.065Z,55.17
2023-01-21T07:25:39.696Z,46.63
2023-01-21T07:28:44.701Z,51.47
2023-01-21T07:31:49.537Z,47.10
2023-01-21T07:34:53.569Z,48.13
2023-01-21T07:37:57.309Z,49.43
2023-01-21T07:41:01.237Z,48.70
2023-01-21T07:44:09.836Z,47.17
2023-01-21T07:47:13.472Z,50.83
2023-01-21T07:50:18.094Z,50.03
2023-01-21T07:53:21.732Z,51.80
2023-01-21T07:56:26.869Z,51.40
2023-01-21T07:59:31.935Z,46.20
2023-01-21T08:02:36.292Z,44.53
2023-01-21T08:05:40.135Z,47.23
2023-01-21T08:08:43.717Z,42.33
2023-01-21T08:11:47.431Z,45.00
2023-01-21T08:14:52.449Z,48.53
2023-01-21T08:17:56.637Z,46.90
2023-01-21T08:21:01.282Z,46.70
2023-01-21T08:24:05.697Z,44.27
2023-01-21T08:27:09.287Z,49.30
2023-01-21T08:30:15.788Z,44.20
2023-01-21T08:33:19.416Z,47.30
2023-01-21T08:36:23.046Z,48.67
2023-01-21T08:39:26.745Z,44.00
2023-01-21T08:42:30.912Z,49.30
2023-01-21T08:45:38.704Z,51.80
2023-01-21T08:48:42.750Z,50.63
2023-01-21T08:51:46.430Z,54.53
2023-01-21T08:54:50.883Z,51.10
2023-01-21T08:57:55.861Z,49.90
2023-01-21T09:01:07.535Z,65.30
2023-01-21T09:04:11.489Z,66.53
2023-01-21T09:07:15.138Z,55.30
2023-01-21T09:10:39.543Z,56.70
2023-01-21T09:13:44.648Z,57.67
2023-01-21T09:16:51.657Z,56.03
2023-01-21T09:19:55.587Z,55.00
2023-01-21T09:23:00.140Z,60.73
2023-01-21T09:26:06.649Z,59.40
2023-01-21T09:29:12.709Z,58.40
2023-01-21T09:32:17.760Z,55.00
2023-01-21T09:35:21.366Z,57.47
2023-01-21T09:38:25.716Z,52.23
2023-01-21T09:41:36.355Z,49.10
2023-01-21T09:44:45.774Z,58.90
2023-01-21T09:47:55.225Z,53.80
2023-01-21T09:51:07.329Z,57.20
2023-01-21T09:54:21.898Z,52.80
2023-01-21T09:57:59.549Z,60.00
2023-01-21T10:01:13.976Z,61.10
2023-01-21T10:04:41.748Z,49.53
2023-01-21T10:07:56.293Z,49.63
2023-01-21T10:11:22.220Z,58.07
2023-01-21T10:15:05.385Z,45.60
2023-01-21T10:18:14.024Z,55.63
2023-01-21T10:21:33.363Z,52.70
2023-01-21T10:24:45.289Z,54.43
2023-01-21T10:27:48.882Z,45.90
2023-01-21T10:30:55.568Z,48.10
2023-01-21T10:33:59.555Z,57.20
2023-01-21T10:37:18.984Z,55.10
2023-01-21T10:40:43.770Z,58.47
2023-01-21T10:43:59.169Z,59.53
2023-01-21T10:47:15.591Z,61.93
2023-01-21T10:50:42.165Z,53.13
2023-01-21T10:53:58.007Z,51.90
2023-01-21T10:57:16.816Z,48.63
2023-01-21T11:00:24.882Z,43.23
2023-01-21T11:03:41.294Z,49.00
2023-01-21T11:06:50.101Z,47.33
2023-01-21T11:09:55.569Z,40.93
2023-01-21T11:13:00.006Z,48.30
2023-01-21T11:16:04.677Z,46.73
2023-01-21T11:19:14.518Z,48.43
2023-01-21T11:22:25.978Z,51.67
2023-01-21T11:25:41.106Z,47.37
2023-01-21T11:28:45.878Z,46.03
2023-01-21T11:31:52.984Z,44.63
2023-01-21T11:35:05.903Z,44.57
2023-01-21T11:38:26.039Z,49.90
2023-01-21T11:41:31.960Z,48.43
2023-01-21T11:44:36.206Z,44.07
2023-01-21T11:47:48.978Z,53.37
2023-01-21T11:51:07.838Z,49.27
2023-01-21T11:54:15.667Z,50.50
2023-01-21T11:57:30.149Z,49.53
2023-01-21T12:00:37.222Z,50.77
2023-01-21T12:03:48.874Z,52.73
2023-01-21T12:06:58.095Z,49.90
2023-01-21T12:10:24.536Z,48.90
2023-01-21T12:13:40.352Z,45.93
2023-01-21T12:17:03.214Z,53.80
2023-01-21T12:20:29.003Z,47.77
2023-01-21T12:24:07.472Z,47.20
2023-01-21T12:27:27.574Z,51.50
2023-01-21T12:30:46.033Z,46.13
2023-01-21T12:33:59.945Z,46.53
2023-01-21T12:37:14.640Z,40.07
2023-01-21T12:40:25.672Z,36.27
2023-01-21T12:43:36.826Z,34.47
2023-01-21T12:46:48.692Z,40.70
2023-01-21T12:50:27.851Z,43.47
2023-01-21T12:53:41.719Z,36.67
2023-01-21T12:56:52.057Z,36.63
2023-01-21T13:00:03.119Z,35.13
2023-01-21T13:03:25.643Z,36.77
2023-01-21T13:06:53.249Z,36.40
2023-01-21T13:10:12.707Z,30.87
2023-01-21T13:13:24.321Z,28.27
2023-01-21T13:16:30.412Z,39.00
2023-01-21T13:19:35.474Z,29.93
2023-01-21T13:22:48.955Z,35.07
2023-01-21T13:26:02.329Z,32.87
2023-01-21T13:29:20.463Z,34.43
2023-01-21T13:32:44.492Z,40.57
2023-01-21T13:36:01.806Z,45.03
2023-01-21T13:39:17.647Z,35.03
2023-01-21T13:42:37.913Z,36.23
2023-01-21T13:45:59.273Z,66.23
2023-01-21T13:49:38.004Z,33.00
2023-01-21T13:53:02.733Z,31.33
2023-01-21T13:56:29.711Z,29.77
2023-01-21T13:59:41.390Z,30.97
2023-01-21T14:02:56.587Z,32.30
2023-01-21T14:06:08.949Z,31.97
2023-01-21T14:09:21.621Z,30.87
2023-01-21T14:12:52.478Z,30.23
2023-01-21T14:16:27.897Z,28.43
2023-01-21T14:20:10.008Z,33.07
2023-01-21T14:23:50.491Z,32.07
2023-01-21T14:27:15.019Z,30.07
2023-01-21T14:30:25.816Z,27.70
2023-01-21T14:33:39.738Z,28.70
2023-01-21T14:36:54.413Z,28.50
2023-01-21T14:40:13.253Z,35.20
2023-01-21T14:43:53.026Z,36.57
2023-01-21T14:47:19.555Z,28.10
2023-01-21T14:50:53.818Z,29.17
2023-01-21T14:54:03.224Z,33.00
2023-01-21T14:57:18.578Z,26.33
2023-01-21T15:00:30.614Z,27.90
2023-01-21T15:03:46.930Z,26.40
2023-01-21T15:06:56.492Z,31.27
2023-01-21T15:10:10.175Z,34.07
2023-01-21T15:13:38.055Z,25.53
2023-01-21T15:16:45.438Z,25.40
2023-01-21T15:19:59.193Z,32.83
2023-01-21T15:23:18.543Z,27.70
2023-01-21T15:26:33.791Z,26.07
2023-01-21T15:29:39.708Z,27.90
2023-01-21T15:32:50.799Z,27.20
2023-01-21T15:35:56.443Z,26.17
2023-01-21T15:39:04.794Z,28.63
2023-01-21T15:42:23.520Z,27.33
2023-01-21T15:45:38.925Z,28.00
2023-01-21T15:49:20.296Z,30.30
2023-01-21T15:52:45.941Z,29.83
2023-01-21T15:56:23.589Z,30.93
2023-01-21T16:00:02.667Z,31.77
2023-01-21T16:03:23.051Z,32.90
2023-01-21T16:06:44.010Z,32.33
2023-01-21T16:10:06.204Z,27.73
2023-01-21T16:13:23.674Z,31.47
2023-01-21T16:16:51.660Z,34.20
2023-01-21T16:20:01.556Z,33.80
2023-01-21T16:23:09.063Z,35.97
2023-01-21T16:26:25.250Z,33.37
2023-01-21T16:29:28.923Z,35.23
2023-01-21T16:32:32.834Z,36.30
2023-01-21T16:35:45.606Z,38.60
2023-01-21T16:38:50.776Z,37.57
2023-01-21T16:42:03.670Z,36.37
2023-01-21T16:45:17.765Z,37.90
2023-01-21T16:48:26.679Z,38.90
2023-01-21T16:51:33.509Z,42.73
2023-01-21T16:54:50.029Z,42.47
2023-01-21T16:57:56.697Z,42.67
2023-01-21T17:01:06.608Z,41.10
2023-01-21T17:04:10.959Z,34.37
2023-01-21T17:07:21.264Z,40.87
2023-01-21T17:10:34.031Z,42.03
2023-01-21T17:13:42.608Z,45.03
2023-01-21T17:16:46.433Z,39.87
2023-01-21T17:19:52.085Z,43.63
2023-01-21T17:22:55.920Z,39.17
2023-01-21T17:26:06.102Z,41.83
2023-01-21T17:29:17.899Z,40.00
2023-01-21T17:32:28.561Z,41.03
2023-01-21T17:35:33.724Z,40.40
2023-01-21T17:38:42.932Z,42.73
2023-01-21T17:41:47.944Z,40.20
2023-01-21T17:44:56.677Z,40.50
2023-01-21T17:48:10.229Z,42.47
2023-01-21T17:51:18.357Z,37.63
2023-01-21T17:54:25.130Z,40.30
2023-01-21T17:57:38.984Z,46.20
2023-01-21T18:00:45.447Z,48.60
2023-01-21T18:03:49.212Z,45.07
2023-01-21T18:06:55.141Z,150.63
2023-01-21T18:10:03.724Z,45.63
2023-01-21T18:13:12.568Z,46.47
2023-01-21T18:16:16.481Z,43.03
2023-01-21T18:19:30.819Z,46.60
2023-01-21T18:22:36.068Z,43.90
2023-01-21T18:25:40.751Z,43.83
2023-01-21T18:28:45.845Z,45.97
2023-01-21T18:31:52.163Z,39.17
2023-01-21T18:34:56.085Z,41.00
2023-01-21T18:38:00.021Z,40.83
2023-01-21T18:41:03.993Z,40.53
2023-01-21T18:44:09.764Z,41.73
2023-01-21T18:47:15.565Z,37.47
2023-01-21T18:50:23.229Z,36.80
2023-01-21T18:53:27.026Z,39.80
2023-01-21T18:56:30.700Z,37.90
2023-01-21T18:59:36.168Z,29.57
2023-01-21T19:02:39.784Z,34.07
2023-01-21T19:05:47.574Z,36.47
2023-01-21T19:08:51.451Z,32.17
2023-01-21T19:11:55.024Z,30.47
2023-01-21T19:15:00.047Z,28.63
2023-01-21T19:18:03.862Z,25.60
2023-01-21T19:21:08.285Z,25.90
2023-01-21T19:24:12.470Z,22.63
2023-01-21T19:27:26.365Z,20.83
2023-01-21T19:30:33.329Z,30.60
2023-01-21T19:33:36.988Z,30.97
2023-01-21T19:36:41.556Z,22.53
2023-01-21T19:39:45.366Z,21.17
2023-01-21T19:42:50.188Z,21.53
2023-01-21T19:45:55.906Z,21.70
2023-01-21T19:49:00.779Z,19.10
2023-01-21T19:52:05.847Z,19.00
2023-01-21T19:55:15.232Z,17.90
2023-01-21T19:58:23.304Z,15.47
2023-01-21T20:01:28.368Z,18.27
2023-01-21T20:04:32.008Z,15.90
2023-01-21T20:07:35.797Z,16.47
2023-01-21T20:10:39.439Z,14.33
2023-01-21T20:13:43.135Z,15.37
2023-01-21T20:16:52.813Z,16.37
2023-01-21T20:19:56.416Z,17.40
2023-01-21T20:23:00.394Z,13.43
2023-01-21T20:26:09.528Z,14.53
2023-01-21T20:29:16.644Z,15.70
2023-01-21T20:32:21.793Z,13.63
2023-01-21T20:35:27.227Z,16.73
2023-01-21T20:38:34.944Z,15.27
2023-01-21T20:41:39.939Z,14.47
2023-01-21T20:44:44.648Z,12.50
2023-01-21T20:47:52.807Z,13.77
2023-01-21T20:50:56.777Z,12.67
2023-01-21T20:54:00.364Z,14.80
2023-01-21T20:57:04.078Z,15.67
2023-01-21T21:00:14.527Z,13.57
2023-01-21T21:03:20.330Z,12.17
2023-01-21T21:06:27.774Z,11.37
2023-01-21T21:09:36.114Z,14.43
2023-01-21T21:12:39.831Z,15.07
2023-01-21T21:15:46.644Z,14.03
2023-01-21T21:18:52.565Z,16.17
2023-01-21T21:21:56.203Z,13.53
2023-01-21T21:24:59.966Z,11.73
2023-01-21T21:28:03.757Z,14.47
2023-01-21T21:31:07.430Z,14.07
2023-01-21T21:34:13.540Z,13.53
2023-01-21T21:37:17.119Z,13.73
2023-01-21T21:40:22.588Z,13.70
2023-01-21T21:43:35.955Z,12.37
2023-01-21T21:46:58.310Z,14.50
2023-01-21T21:50:03.395Z,14.33
2023-01-21T21:53:08.317Z,15.87
2023-01-21T21:56:15.904Z,14.03
2023-01-21T21:59:19.833Z,13.87
2023-01-21T22:02:23.993Z,16.30
2023-01-21T22:05:33.088Z,16.97
2023-01-21T22:08:39.340Z,13.30
2023-01-21T22:11:43.113Z,16.57
2023-01-21T22:14:46.747Z,17.00
2023-01-21T22:17:50.699Z,17.10
2023-01-21T22:21:02.050Z,15.57
2023-01-21T22:24:08.251Z,13.63
2023-01-21T22:27:13.279Z,18.60
2023-01-21T22:30:17.711Z,15.17
2023-01-21T22:33:22.305Z,15.47
2023-01-21T22:36:30.623Z,14.30
2023-01-21T22:39:34.213Z,13.57
2023-01-21T22:42:38.087Z,15.47
2023-01-21T22:45:48.063Z,16.93
2023-01-21T22:48:52.335Z,18.30
2023-01-21T22:51:57.316Z,12.77
2023-01-21T22:55:00.973Z,14.53
2023-01-21T22:58:04.690Z,12.27
2023-01-21T23:01:08.808Z,15.27
2023-01-21T23:04:12.705Z,13.70
2023-01-21T23:07:17.865Z,15.90
2023-01-21T23:10:21.799Z,14.70
2023-01-21T23:13:26.480Z,15.13
2023-01-21T23:16:30.068Z,14.50
2023-01-21T23:19:33.744Z,15.40
2023-01-21T23:22:38.765Z,13.60
2023-01-21T23:25:42.704Z,16.37
2023-01-21T23:28:47.340Z,14.87
2023-01-21T23:31:51.972Z,14.67
2023-01-21T23:34:55.882Z,14.87
2023-01-21T23:38:01.159Z,13.47
2023-01-21T23:41:08.252Z,14.60
2023-01-21T23:44:12.064Z,13.07
2023-01-21T23:47:15.697Z,11.97
2023-01-21T23:50:19.735Z,11.53
2023-01-21T23:53:25.203Z,17.10
2023-01-21T23:56:28.961Z,11.40
2023-01-21T23:59:32.651Z,15.67
